sensor_id;sensor_type;location;lat;lon;timestamp;temperature;humidity
9410;DHT22;4744;52.576;13.568;2024-03-02T00:00:50;5.80;99.90
9410;DHT22;4744;52.576;13.568;2024-03-02T00:03:18;5.80;99.90
9410;DHT22;4744;52.576;13.568;2024-03-02T00:05:49;5.80;99.90
9410;DHT22;4744;52.576;13.568;2024-03-02T00:08:22;5.80;99.90
9410;DHT22;4744;52.576;13.568;2024-03-02T00:10:50;5.80;99.90
9410;DHT22;4744;52.576;13.568;2024-03-02T00:13:20;5.80;99.90
9410;DHT22;4744;52.576;13.568;2024-03-02T00:15:52;5.80;99.90
9410;DHT22;4744;52.576;13.568;2024-03-02T00:18:20;5.80;99.90
9410;DHT22;4744;52.576;13.568;2024-03-02T00:20:48;5.80;99.90
9410;DHT22;4744;52.576;13.568;2024-03-02T00:23:16;5.80;99.90
9410;DHT22;4744;52.576;13.568;2024-03-02T00:25:46;5.80;99.90
9410;DHT22;4744;52.576;13.568;2024-03-02T00:28:16;5.80;99.90
9410;DHT22;4744;52.576;13.568;2024-03-02T00:30:55;5.70;99.90
9410;DHT22;4744;52.576;13.568;2024-03-02T00:33:25;5.80;99.90
9410;DHT22;4744;52.576;13.568;2024-03-02T00:35:53;5.80;99.90
9410;DHT22;4744;52.576;13.568;2024-03-02T00:38:20;5.80;99.90
9410;DHT22;4744;52.576;13.568;2024-03-02T00:40:48;5.80;99.90
9410;DHT22;4744;52.576;13.568;2024-03-02T00:43:42;5.80;99.90
9410;DHT22;4744;52.576;13.568;2024-03-02T00:46:13;5.90;99.90
9410;DHT22;4744;52.576;13.568;2024-03-02T00:48:53;5.90;99.90
9410;DHT22;4744;52.576;13.568;2024-03-02T00:51:21;5.90;99.90
9410;DHT22;4744;52.576;13.568;2024-03-02T00:53:48;5.90;99.90
9410;DHT22;4744;52.576;13.568;2024-03-02T00:56:16;5.90;99.90
9410;DHT22;4744;52.576;13.568;2024-03-02T00:58:43;5.90;99.90
9410;DHT22;4744;52.576;13.568;2024-03-02T01:01:11;5.90;99.90
9410;DHT22;4744;52.576;13.568;2024-03-02T01:03:39;6.00;99.90
9410;DHT22;4744;52.576;13.568;2024-03-02T01:06:05;6.00;99.90
9410;DHT22;4744;52.576;13.568;2024-03-02T01:08:33;6.00;99.90
9410;DHT22;4744;52.576;13.568;2024-03-02T01:11:00;5.90;99.90
9410;DHT22;4744;52.576;13.568;2024-03-02T01:13:27;5.90;99.90
9410;DHT22;4744;52.576;13.568;2024-03-02T01:15:53;5.90;99.90
9410;DHT22;4744;52.576;13.568;2024-03-02T01:18:22;6.00;99.90
9410;DHT22;4744;52.576;13.568;2024-03-02T01:20:49;6.00;99.90
9410;DHT22;4744;52.576;13.568;2024-03-02T01:23:18;6.00;99.90
9410;DHT22;4744;52.576;13.568;2024-03-02T01:25:46;6.00;99.90
9410;DHT22;4744;52.576;13.568;2024-03-02T01:28:13;6.00;99.90
9410;DHT22;4744;52.576;13.568;2024-03-02T01:30:40;6.00;99.90
9410;DHT22;4744;52.576;13.568;2024-03-02T01:33:07;6.10;99.90
9410;DHT22;4744;52.576;13.568;2024-03-02T01:35:36;6.10;99.90
9410;DHT22;4744;52.576;13.568;2024-03-02T01:38:03;6.10;99.90
9410;DHT22;4744;52.576;13.568;2024-03-02T01:40:32;6.10;99.90
9410;DHT22;4744;52.576;13.568;2024-03-02T01:42:59;6.10;99.90
9410;DHT22;4744;52.576;13.568;2024-03-02T01:45:26;6.10;99.90
9410;DHT22;4744;52.576;13.568;2024-03-02T01:47:53;6.10;99.90
9410;DHT22;4744;52.576;13.568;2024-03-02T01:50:26;6.10;99.90
9410;DHT22;4744;52.576;13.568;2024-03-02T01:52:55;6.10;99.90
9410;DHT22;4744;52.576;13.568;2024-03-02T01:55:22;6.20;99.90
9410;DHT22;4744;52.576;13.568;2024-03-02T01:57:49;6.20;99.90
9410;DHT22;4744;52.576;13.568;2024-03-02T02:00:18;6.20;99.90
9410;DHT22;4744;52.576;13.568;2024-03-02T02:02:45;6.20;99.90
9410;DHT22;4744;52.576;13.568;2024-03-02T02:05:12;6.20;99.90
9410;DHT22;4744;52.576;13.568;2024-03-02T02:07:40;6.20;99.90
9410;DHT22;4744;52.576;13.568;2024-03-02T02:10:10;6.20;99.90
9410;DHT22;4744;52.576;13.568;2024-03-02T02:12:38;6.20;99.90
9410;DHT22;4744;52.576;13.568;2024-03-02T02:15:22;6.20;99.90
9410;DHT22;4744;52.576;13.568;2024-03-02T02:17:49;6.20;99.90
9410;DHT22;4744;52.576;13.568;2024-03-02T02:20:16;6.20;99.90
9410;DHT22;4744;52.576;13.568;2024-03-02T02:22:57;6.20;99.90
9410;DHT22;4744;52.576;13.568;2024-03-02T02:25:24;6.20;99.90
9410;DHT22;4744;52.576;13.568;2024-03-02T02:27:51;6.20;99.90
9410;DHT22;4744;52.576;13.568;2024-03-02T02:30:19;6.20;99.90
9410;DHT22;4744;52.576;13.568;2024-03-02T02:32:46;6.20;99.90
9410;DHT22;4744;52.576;13.568;2024-03-02T02:35:14;6.20;99.90
9410;DHT22;4744;52.576;13.568;2024-03-02T02:37:41;6.20;99.90
9410;DHT22;4744;52.576;13.568;2024-03-02T02:40:10;6.20;99.90
9410;DHT22;4744;52.576;13.568;2024-03-02T02:42:38;6.20;99.90
9410;DHT22;4744;52.576;13.568;2024-03-02T02:45:05;6.30;99.90
9410;DHT22;4744;52.576;13.568;2024-03-02T02:47:32;6.30;99.90
9410;DHT22;4744;52.576;13.568;2024-03-02T02:50:01;6.30;99.90
9410;DHT22;4744;52.576;13.568;2024-03-02T02:52:31;6.30;99.90
9410;DHT22;4744;52.576;13.568;2024-03-02T02:55:01;6.30;99.90
9410;DHT22;4744;52.576;13.568;2024-03-02T02:57:30;6.30;99.90
9410;DHT22;4744;52.576;13.568;2024-03-02T03:00:00;6.40;99.90
9410;DHT22;4744;52.576;13.568;2024-03-02T03:02:29;6.40;99.90
9410;DHT22;4744;52.576;13.568;2024-03-02T03:04:56;6.40;99.90
9410;DHT22;4744;52.576;13.568;2024-03-02T03:07:23;6.40;99.90
9410;DHT22;4744;52.576;13.568;2024-03-02T03:09:50;6.50;99.90
9410;DHT22;4744;52.576;13.568;2024-03-02T03:12:17;6.50;99.90
9410;DHT22;4744;52.576;13.568;2024-03-02T03:14:45;6.60;99.90
9410;DHT22;4744;52.576;13.568;2024-03-02T03:17:12;6.60;99.90
9410;DHT22;4744;52.576;13.568;2024-03-02T03:19:39;6.60;99.90
9410;DHT22;4744;52.576;13.568;2024-03-02T03:22:06;6.70;99.90
9410;DHT22;4744;52.576;13.568;2024-03-02T03:24:33;6.70;99.90
9410;DHT22;4744;52.576;13.568;2024-03-02T03:27:00;6.80;99.90
9410;DHT22;4744;52.576;13.568;2024-03-02T03:29:27;6.80;99.90
9410;DHT22;4744;52.576;13.568;2024-03-02T03:31:56;6.80;99.90
9410;DHT22;4744;52.576;13.568;2024-03-02T03:34:22;6.80;99.90
9410;DHT22;4744;52.576;13.568;2024-03-02T03:36:50;6.80;99.90
9410;DHT22;4744;52.576;13.568;2024-03-02T03:39:17;6.90;99.90
9410;DHT22;4744;52.576;13.568;2024-03-02T03:41:44;6.90;99.90
9410;DHT22;4744;52.576;13.568;2024-03-02T03:44:11;6.90;99.90
9410;DHT22;4744;52.576;13.568;2024-03-02T03:46:38;6.90;99.90
9410;DHT22;4744;52.576;13.568;2024-03-02T03:49:06;6.90;99.90
9410;DHT22;4744;52.576;13.568;2024-03-02T03:51:33;6.90;99.90
9410;DHT22;4744;52.576;13.568;2024-03-02T03:54:01;7.00;99.90
9410;DHT22;4744;52.576;13.568;2024-03-02T03:56:28;7.00;99.90
9410;DHT22;4744;52.576;13.568;2024-03-02T03:58:54;7.00;99.90
9410;DHT22;4744;52.576;13.568;2024-03-02T04:01:21;7.00;99.90
9410;DHT22;4744;52.576;13.568;2024-03-02T04:03:48;7.00;99.90
9410;DHT22;4744;52.576;13.568;2024-03-02T04:06:17;7.00;99.90
9410;DHT22;4744;52.576;13.568;2024-03-02T04:08:43;7.00;99.90
9410;DHT22;4744;52.576;13.568;2024-03-02T04:11:10;7.00;99.90
9410;DHT22;4744;52.576;13.568;2024-03-02T04:13:37;7.00;99.90
9410;DHT22;4744;52.576;13.568;2024-03-02T04:16:04;7.00;99.90
9410;DHT22;4744;52.576;13.568;2024-03-02T04:18:31;7.00;99.90
9410;DHT22;4744;52.576;13.568;2024-03-02T04:20:58;7.00;99.90
9410;DHT22;4744;52.576;13.568;2024-03-02T04:23:27;7.00;99.90
9410;DHT22;4744;52.576;13.568;2024-03-02T04:25:54;7.00;99.90
9410;DHT22;4744;52.576;13.568;2024-03-02T04:28:21;7.00;99.90
9410;DHT22;4744;52.576;13.568;2024-03-02T04:30:47;7.00;99.90
9410;DHT22;4744;52.576;13.568;2024-03-02T04:33:14;7.00;99.90
9410;DHT22;4744;52.576;13.568;2024-03-02T04:35:41;7.10;99.90
9410;DHT22;4744;52.576;13.568;2024-03-02T04:38:08;7.00;99.90
9410;DHT22;4744;52.576;13.568;2024-03-02T04:40:36;7.10;99.90
9410;DHT22;4744;52.576;13.568;2024-03-02T04:43:04;7.10;99.90
9410;DHT22;4744;52.576;13.568;2024-03-02T04:45:30;7.00;99.90
9410;DHT22;4744;52.576;13.568;2024-03-02T04:47:57;7.10;99.90
9410;DHT22;4744;52.576;13.568;2024-03-02T04:50:24;7.10;99.90
9410;DHT22;4744;52.576;13.568;2024-03-02T04:52:51;7.10;99.90
9410;DHT22;4744;52.576;13.568;2024-03-02T04:55:18;7.10;99.90
9410;DHT22;4744;52.576;13.568;2024-03-02T04:58:12;7.10;99.90
9410;DHT22;4744;52.576;13.568;2024-03-02T05:00:39;7.10;99.90
9410;DHT22;4744;52.576;13.568;2024-03-02T05:03:05;7.10;99.90
9410;DHT22;4744;52.576;13.568;2024-03-02T05:05:32;7.10;99.90
9410;DHT22;4744;52.576;13.568;2024-03-02T05:08:00;7.10;99.90
9410;DHT22;4744;52.576;13.568;2024-03-02T05:10:28;7.10;99.90
9410;DHT22;4744;52.576;13.568;2024-03-02T05:12:55;7.20;99.90
9410;DHT22;4744;52.576;13.568;2024-03-02T05:15:26;7.20;99.90
9410;DHT22;4744;52.576;13.568;2024-03-02T05:17:53;7.20;99.90
9410;DHT22;4744;52.576;13.568;2024-03-02T05:20:20;7.20;99.90
9410;DHT22;4744;52.576;13.568;2024-03-02T05:22:47;7.20;99.90
9410;DHT22;4744;52.576;13.568;2024-03-02T05:25:14;7.20;99.90
9410;DHT22;4744;52.576;13.568;2024-03-02T05:27:41;7.20;99.90
9410;DHT22;4744;52.576;13.568;2024-03-02T05:30:09;7.20;99.90
9410;DHT22;4744;52.576;13.568;2024-03-02T05:32:37;7.20;99.90
9410;DHT22;4744;52.576;13.568;2024-03-02T05:35:05;7.20;99.90
9410;DHT22;4744;52.576;13.568;2024-03-02T05:37:32;7.30;99.90
9410;DHT22;4744;52.576;13.568;2024-03-02T05:39:59;7.30;99.90
9410;DHT22;4744;52.576;13.568;2024-03-02T05:42:26;7.30;99.90
9410;DHT22;4744;52.576;13.568;2024-03-02T05:44:53;7.40;99.90
9410;DHT22;4744;52.576;13.568;2024-03-02T05:47:20;7.50;99.90
9410;DHT22;4744;52.576;13.568;2024-03-02T05:49:48;7.60;99.90
9410;DHT22;4744;52.576;13.568;2024-03-02T05:52:15;7.60;99.90
9410;DHT22;4744;52.576;13.568;2024-03-02T05:54:42;7.60;99.90
9410;DHT22;4744;52.576;13.568;2024-03-02T05:57:09;7.70;99.90
9410;DHT22;4744;52.576;13.568;2024-03-02T05:59:59;7.70;99.90
9410;DHT22;4744;52.576;13.568;2024-03-02T06:02:26;7.80;99.90
9410;DHT22;4744;52.576;13.568;2024-03-02T06:04:56;7.80;99.90
9410;DHT22;4744;52.576;13.568;2024-03-02T06:07:23;7.80;99.90
9410;DHT22;4744;52.576;13.568;2024-03-02T06:09:49;7.80;99.90
9410;DHT22;4744;52.576;13.568;2024-03-02T06:12:18;7.80;99.90
9410;DHT22;4744;52.576;13.568;2024-03-02T06:14:45;7.80;99.90
9410;DHT22;4744;52.576;13.568;2024-03-02T06:17:12;7.80;99.90
9410;DHT22;4744;52.576;13.568;2024-03-02T06:19:39;7.80;99.90
9410;DHT22;4744;52.576;13.568;2024-03-02T06:22:08;7.80;99.90
9410;DHT22;4744;52.576;13.568;2024-03-02T06:24:36;7.70;99.90
9410;DHT22;4744;52.576;13.568;2024-03-02T06:27:03;7.80;99.90
9410;DHT22;4744;52.576;13.568;2024-03-02T06:29:32;7.70;99.90
9410;DHT22;4744;52.576;13.568;2024-03-02T06:31:59;7.70;99.90
9410;DHT22;4744;52.576;13.568;2024-03-02T06:34:26;7.80;99.90
9410;DHT22;4744;52.576;13.568;2024-03-02T06:36:53;7.80;99.90
9410;DHT22;4744;52.576;13.568;2024-03-02T06:39:21;7.80;99.90
9410;DHT22;4744;52.576;13.568;2024-03-02T06:41:48;7.80;99.90
9410;DHT22;4744;52.576;13.568;2024-03-02T06:44:15;7.70;99.90
9410;DHT22;4744;52.576;13.568;2024-03-02T06:46:42;7.70;99.90
9410;DHT22;4744;52.576;13.568;2024-03-02T06:49:09;7.70;99.90
9410;DHT22;4744;52.576;13.568;2024-03-02T06:51:36;7.80;99.90
9410;DHT22;4744;52.576;13.568;2024-03-02T06:54:03;7.80;99.90
9410;DHT22;4744;52.576;13.568;2024-03-02T06:56:31;7.80;99.90
9410;DHT22;4744;52.576;13.568;2024-03-02T06:58:59;7.80;99.90
9410;DHT22;4744;52.576;13.568;2024-03-02T07:01:26;7.70;99.90
9410;DHT22;4744;52.576;13.568;2024-03-02T07:03:53;7.70;99.90
9410;DHT22;4744;52.576;13.568;2024-03-02T07:06:20;7.80;99.90
9410;DHT22;4744;52.576;13.568;2024-03-02T07:08:47;7.80;99.90
9410;DHT22;4744;52.576;13.568;2024-03-02T07:11:14;7.80;99.90
9410;DHT22;4744;52.576;13.568;2024-03-02T07:13:42;7.80;99.90
9410;DHT22;4744;52.576;13.568;2024-03-02T07:16:09;7.80;99.90
9410;DHT22;4744;52.576;13.568;2024-03-02T07:18:55;7.80;99.90
9410;DHT22;4744;52.576;13.568;2024-03-02T07:21:22;7.80;99.90
9410;DHT22;4744;52.576;13.568;2024-03-02T07:23:49;7.80;99.90
9410;DHT22;4744;52.576;13.568;2024-03-02T07:26:18;7.80;99.90
9410;DHT22;4744;52.576;13.568;2024-03-02T07:28:47;7.80;99.90
9410;DHT22;4744;52.576;13.568;2024-03-02T07:31:15;7.80;99.90
9410;DHT22;4744;52.576;13.568;2024-03-02T07:33:44;7.80;99.90
9410;DHT22;4744;52.576;13.568;2024-03-02T07:36:10;7.80;99.90
9410;DHT22;4744;52.576;13.568;2024-03-02T07:38:37;7.80;99.90
9410;DHT22;4744;52.576;13.568;2024-03-02T07:41:05;7.80;99.90
9410;DHT22;4744;52.576;13.568;2024-03-02T07:43:33;7.80;99.90
9410;DHT22;4744;52.576;13.568;2024-03-02T07:46:01;7.80;99.90
9410;DHT22;4744;52.576;13.568;2024-03-02T07:48:29;7.80;99.90
9410;DHT22;4744;52.576;13.568;2024-03-02T07:50:56;7.80;99.90
9410;DHT22;4744;52.576;13.568;2024-03-02T07:53:23;7.80;99.90
9410;DHT22;4744;52.576;13.568;2024-03-02T07:55:50;7.80;99.90
9410;DHT22;4744;52.576;13.568;2024-03-02T07:58:17;7.80;99.90
9410;DHT22;4744;52.576;13.568;2024-03-02T08:00:45;7.80;99.90
9410;DHT22;4744;52.576;13.568;2024-03-02T08:03:13;7.80;99.90
9410;DHT22;4744;52.576;13.568;2024-03-02T08:05:40;7.80;99.90
9410;DHT22;4744;52.576;13.568;2024-03-02T08:08:07;7.80;99.90
9410;DHT22;4744;52.576;13.568;2024-03-02T08:10:34;7.80;99.90
9410;DHT22;4744;52.576;13.568;2024-03-02T08:13:01;7.80;99.90
9410;DHT22;4744;52.576;13.568;2024-03-02T08:15:28;7.80;99.90
9410;DHT22;4744;52.576;13.568;2024-03-02T08:17:55;7.80;99.90
9410;DHT22;4744;52.576;13.568;2024-03-02T08:20:23;7.80;99.90
9410;DHT22;4744;52.576;13.568;2024-03-02T08:22:50;7.80;99.90
9410;DHT22;4744;52.576;13.568;2024-03-02T08:25:20;7.80;99.90
9410;DHT22;4744;52.576;13.568;2024-03-02T08:27:47;7.90;99.90
9410;DHT22;4744;52.576;13.568;2024-03-02T08:30:14;7.90;99.90
9410;DHT22;4744;52.576;13.568;2024-03-02T08:32:41;8.00;99.90
9410;DHT22;4744;52.576;13.568;2024-03-02T08:35:08;8.00;99.90
9410;DHT22;4744;52.576;13.568;2024-03-02T08:37:38;8.00;99.90
9410;DHT22;4744;52.576;13.568;2024-03-02T08:40:07;8.00;99.90
9410;DHT22;4744;52.576;13.568;2024-03-02T08:42:34;8.00;99.90
9410;DHT22;4744;52.576;13.568;2024-03-02T08:45:01;8.10;99.90
9410;DHT22;4744;52.576;13.568;2024-03-02T08:47:28;8.00;99.90
9410;DHT22;4744;52.576;13.568;2024-03-02T08:49:55;8.10;99.90
9410;DHT22;4744;52.576;13.568;2024-03-02T08:52:22;8.10;99.90
9410;DHT22;4744;52.576;13.568;2024-03-02T08:54:50;8.00;99.90
9410;DHT22;4744;52.576;13.568;2024-03-02T08:57:17;8.00;99.90
9410;DHT22;4744;52.576;13.568;2024-03-02T08:59:44;8.00;99.90
9410;DHT22;4744;52.576;13.568;2024-03-02T09:02:11;8.00;99.90
9410;DHT22;4744;52.576;13.568;2024-03-02T09:04:38;8.00;99.90
9410;DHT22;4744;52.576;13.568;2024-03-02T09:07:05;8.00;99.90
9410;DHT22;4744;52.576;13.568;2024-03-02T09:09:32;8.10;99.90
9410;DHT22;4744;52.576;13.568;2024-03-02T09:12:01;8.10;99.90
9410;DHT22;4744;52.576;13.568;2024-03-02T09:14:28;8.10;99.90
9410;DHT22;4744;52.576;13.568;2024-03-02T09:16:55;8.10;99.90
9410;DHT22;4744;52.576;13.568;2024-03-02T09:19:22;8.20;99.90
9410;DHT22;4744;52.576;13.568;2024-03-02T09:21:49;8.20;99.90
9410;DHT22;4744;52.576;13.568;2024-03-02T09:24:16;8.20;99.90
9410;DHT22;4744;52.576;13.568;2024-03-02T09:26:43;8.20;99.90
9410;DHT22;4744;52.576;13.568;2024-03-02T09:29:12;8.30;99.90
9410;DHT22;4744;52.576;13.568;2024-03-02T09:31:39;8.30;99.90
9410;DHT22;4744;52.576;13.568;2024-03-02T09:34:06;8.30;99.90
9410;DHT22;4744;52.576;13.568;2024-03-02T09:36:33;8.40;99.90
9410;DHT22;4744;52.576;13.568;2024-03-02T09:39:00;8.40;99.90
9410;DHT22;4744;52.576;13.568;2024-03-02T09:41:29;8.40;99.90
9410;DHT22;4744;52.576;13.568;2024-03-02T09:43:56;8.50;99.90
9410;DHT22;4744;52.576;13.568;2024-03-02T09:46:25;8.50;99.90
9410;DHT22;4744;52.576;13.568;2024-03-02T09:48:52;8.50;99.90
9410;DHT22;4744;52.576;13.568;2024-03-02T09:51:20;8.50;99.90
9410;DHT22;4744;52.576;13.568;2024-03-02T09:53:47;8.70;99.90
9410;DHT22;4744;52.576;13.568;2024-03-02T09:56:15;8.90;99.80
9410;DHT22;4744;52.576;13.568;2024-03-02T09:58:44;9.00;98.00
9410;DHT22;4744;52.576;13.568;2024-03-02T10:01:11;9.20;98.20
9410;DHT22;4744;52.576;13.568;2024-03-02T10:03:39;9.20;96.20
9410;DHT22;4744;52.576;13.568;2024-03-02T10:06:19;9.40;96.00
9410;DHT22;4744;52.576;13.568;2024-03-02T10:08:46;9.50;95.30
9410;DHT22;4744;52.576;13.568;2024-03-02T10:11:26;9.50;94.90
9410;DHT22;4744;52.576;13.568;2024-03-02T10:14:04;9.50;94.70
9410;DHT22;4744;52.576;13.568;2024-03-02T10:16:34;9.50;93.80
9410;DHT22;4744;52.576;13.568;2024-03-02T10:19:17;9.50;94.30
9410;DHT22;4744;52.576;13.568;2024-03-02T10:21:44;9.60;93.90
9410;DHT22;4744;52.576;13.568;2024-03-02T10:24:11;9.60;92.50
9410;DHT22;4744;52.576;13.568;2024-03-02T10:26:39;9.60;93.70
9410;DHT22;4744;52.576;13.568;2024-03-02T10:29:07;9.70;92.50
9410;DHT22;4744;52.576;13.568;2024-03-02T10:31:37;9.70;92.70
9410;DHT22;4744;52.576;13.568;2024-03-02T10:34:04;9.70;91.70
9410;DHT22;4744;52.576;13.568;2024-03-02T10:36:33;9.70;91.60
9410;DHT22;4744;52.576;13.568;2024-03-02T10:39:01;9.70;92.00
9410;DHT22;4744;52.576;13.568;2024-03-02T10:41:31;9.80;91.20
9410;DHT22;4744;52.576;13.568;2024-03-02T10:43:59;9.90;92.60
9410;DHT22;4744;52.576;13.568;2024-03-02T10:46:28;10.00;91.30
9410;DHT22;4744;52.576;13.568;2024-03-02T10:48:55;10.00;91.90
9410;DHT22;4744;52.576;13.568;2024-03-02T10:51:24;10.00;92.50
9410;DHT22;4744;52.576;13.568;2024-03-02T10:53:53;10.00;93.20
9410;DHT22;4744;52.576;13.568;2024-03-02T10:56:21;10.00;91.50
9410;DHT22;4744;52.576;13.568;2024-03-02T10:58:51;10.10;91.60
9410;DHT22;4744;52.576;13.568;2024-03-02T11:01:22;10.10;91.00
9410;DHT22;4744;52.576;13.568;2024-03-02T11:03:49;10.10;90.70
9410;DHT22;4744;52.576;13.568;2024-03-02T11:06:17;10.10;91.10
9410;DHT22;4744;52.576;13.568;2024-03-02T11:08:47;10.20;92.20
9410;DHT22;4744;52.576;13.568;2024-03-02T11:11:29;10.30;90.60
9410;DHT22;4744;52.576;13.568;2024-03-02T11:13:57;10.50;88.50
9410;DHT22;4744;52.576;13.568;2024-03-02T11:16:34;10.50;88.40
9410;DHT22;4744;52.576;13.568;2024-03-02T11:19:04;10.60;88.10
9410;DHT22;4744;52.576;13.568;2024-03-02T11:21:32;10.70;89.40
9410;DHT22;4744;52.576;13.568;2024-03-02T11:24:00;10.80;88.60
9410;DHT22;4744;52.576;13.568;2024-03-02T11:26:29;10.80;87.60
9410;DHT22;4744;52.576;13.568;2024-03-02T11:29:04;10.70;87.10
9410;DHT22;4744;52.576;13.568;2024-03-02T11:31:58;10.70;88.00
9410;DHT22;4744;52.576;13.568;2024-03-02T11:34:29;10.70;86.40
9410;DHT22;4744;52.576;13.568;2024-03-02T11:36:56;10.80;86.80
9410;DHT22;4744;52.576;13.568;2024-03-02T11:39:24;10.80;85.40
9410;DHT22;4744;52.576;13.568;2024-03-02T11:41:53;10.80;85.20
9410;DHT22;4744;52.576;13.568;2024-03-02T11:44:20;10.80;84.70
9410;DHT22;4744;52.576;13.568;2024-03-02T11:46:52;10.80;84.90
9410;DHT22;4744;52.576;13.568;2024-03-02T11:49:36;10.80;85.30
9410;DHT22;4744;52.576;13.568;2024-03-02T11:52:05;10.90;84.20
9410;DHT22;4744;52.576;13.568;2024-03-02T11:54:33;10.90;82.70
9410;DHT22;4744;52.576;13.568;2024-03-02T11:57:03;10.80;82.60
9410;DHT22;4744;52.576;13.568;2024-03-02T11:59:30;10.90;81.20
9410;DHT22;4744;52.576;13.568;2024-03-02T12:01:58;10.90;81.40
9410;DHT22;4744;52.576;13.568;2024-03-02T12:04:25;10.90;82.60
9410;DHT22;4744;52.576;13.568;2024-03-02T12:06:55;11.00;81.90
9410;DHT22;4744;52.576;13.568;2024-03-02T12:09:22;11.10;81.10
9410;DHT22;4744;52.576;13.568;2024-03-02T12:12:03;11.10;81.00
9410;DHT22;4744;52.576;13.568;2024-03-02T12:14:30;11.10;79.70
9410;DHT22;4744;52.576;13.568;2024-03-02T12:16:58;11.10;81.30
9410;DHT22;4744;52.576;13.568;2024-03-02T12:19:25;11.10;80.60
9410;DHT22;4744;52.576;13.568;2024-03-02T12:21:53;11.20;81.20
9410;DHT22;4744;52.576;13.568;2024-03-02T12:24:21;11.30;79.70
9410;DHT22;4744;52.576;13.568;2024-03-02T12:26:49;11.30;78.60
9410;DHT22;4744;52.576;13.568;2024-03-02T12:29:18;11.30;79.00
9410;DHT22;4744;52.576;13.568;2024-03-02T12:31:47;11.40;78.40
9410;DHT22;4744;52.576;13.568;2024-03-02T12:34:14;11.40;78.30
9410;DHT22;4744;52.576;13.568;2024-03-02T12:36:42;11.50;77.60
9410;DHT22;4744;52.576;13.568;2024-03-02T12:39:09;11.40;77.30
9410;DHT22;4744;52.576;13.568;2024-03-02T12:41:36;11.40;78.30
9410;DHT22;4744;52.576;13.568;2024-03-02T12:44:04;11.50;78.30
9410;DHT22;4744;52.576;13.568;2024-03-02T12:46:35;11.50;77.70
9410;DHT22;4744;52.576;13.568;2024-03-02T12:49:08;11.70;78.00
9410;DHT22;4744;52.576;13.568;2024-03-02T12:51:35;11.70;76.80
9410;DHT22;4744;52.576;13.568;2024-03-02T12:54:03;11.70;77.40
9410;DHT22;4744;52.576;13.568;2024-03-02T12:56:31;11.90;76.90
9410;DHT22;4744;52.576;13.568;2024-03-02T12:58:58;11.90;75.50
9410;DHT22;4744;52.576;13.568;2024-03-02T13:01:25;12.00;74.20
9410;DHT22;4744;52.576;13.568;2024-03-02T13:03:54;12.10;74.60
9410;DHT22;4744;52.576;13.568;2024-03-02T13:06:22;12.20;75.00
9410;DHT22;4744;52.576;13.568;2024-03-02T13:08:50;12.40;74.50
9410;DHT22;4744;52.576;13.568;2024-03-02T13:11:17;12.50;72.50
9410;DHT22;4744;52.576;13.568;2024-03-02T13:13:44;12.40;72.90
9410;DHT22;4744;52.576;13.568;2024-03-02T13:16:11;12.50;72.00
9410;DHT22;4744;52.576;13.568;2024-03-02T13:18:38;12.50;72.00
9410;DHT22;4744;52.576;13.568;2024-03-02T13:21:07;12.50;71.70
9410;DHT22;4744;52.576;13.568;2024-03-02T13:23:34;12.60;71.20
9410;DHT22;4744;52.576;13.568;2024-03-02T13:26:01;12.70;71.60
9410;DHT22;4744;52.576;13.568;2024-03-02T13:28:29;12.80;70.90
9410;DHT22;4744;52.576;13.568;2024-03-02T13:30:55;12.80;70.40
9410;DHT22;4744;52.576;13.568;2024-03-02T13:33:23;12.80;69.90
9410;DHT22;4744;52.576;13.568;2024-03-02T13:35:50;12.70;70.00
9410;DHT22;4744;52.576;13.568;2024-03-02T13:38:19;12.60;70.20
9410;DHT22;4744;52.576;13.568;2024-03-02T13:40:47;12.50;69.80
9410;DHT22;4744;52.576;13.568;2024-03-02T13:43:17;12.50;71.20
9410;DHT22;4744;52.576;13.568;2024-03-02T13:45:44;12.70;71.20
9410;DHT22;4744;52.576;13.568;2024-03-02T13:48:11;12.80;68.90
9410;DHT22;4744;52.576;13.568;2024-03-02T13:50:40;12.80;69.40
9410;DHT22;4744;52.576;13.568;2024-03-02T13:53:07;12.80;68.90
9410;DHT22;4744;52.576;13.568;2024-03-02T13:55:37;12.70;68.70
9410;DHT22;4744;52.576;13.568;2024-03-02T13:58:04;12.70;69.70
9410;DHT22;4744;52.576;13.568;2024-03-02T14:00:31;12.80;69.40
9410;DHT22;4744;52.576;13.568;2024-03-02T14:02:57;12.90;69.40
9410;DHT22;4744;52.576;13.568;2024-03-02T14:05:24;13.00;68.40
9410;DHT22;4744;52.576;13.568;2024-03-02T14:07:51;12.90;68.60
9410;DHT22;4744;52.576;13.568;2024-03-02T14:10:18;12.90;68.30
9410;DHT22;4744;52.576;13.568;2024-03-02T14:12:49;13.00;69.50
9410;DHT22;4744;52.576;13.568;2024-03-02T14:15:16;13.00;68.60
9410;DHT22;4744;52.576;13.568;2024-03-02T14:17:42;13.00;69.70
9410;DHT22;4744;52.576;13.568;2024-03-02T14:20:10;13.00;68.90
9410;DHT22;4744;52.576;13.568;2024-03-02T14:22:38;12.90;67.40
9410;DHT22;4744;52.576;13.568;2024-03-02T14:25:06;12.90;67.30
9410;DHT22;4744;52.576;13.568;2024-03-02T14:27:33;12.80;68.00
9410;DHT22;4744;52.576;13.568;2024-03-02T14:30:02;12.90;67.90
9410;DHT22;4744;52.576;13.568;2024-03-02T14:32:31;12.90;67.40
9410;DHT22;4744;52.576;13.568;2024-03-02T14:34:57;12.80;65.80
9410;DHT22;4744;52.576;13.568;2024-03-02T14:37:24;12.70;66.10
9410;DHT22;4744;52.576;13.568;2024-03-02T14:39:51;12.80;66.80
9410;DHT22;4744;52.576;13.568;2024-03-02T14:42:18;12.70;66.70
9410;DHT22;4744;52.576;13.568;2024-03-02T14:44:45;12.70;66.30
9410;DHT22;4744;52.576;13.568;2024-03-02T14:47:14;12.60;66.70
9410;DHT22;4744;52.576;13.568;2024-03-02T14:49:41;12.50;69.50
9410;DHT22;4744;52.576;13.568;2024-03-02T14:52:09;12.50;71.30
9410;DHT22;4744;52.576;13.568;2024-03-02T14:54:36;12.50;72.60
9410;DHT22;4744;52.576;13.568;2024-03-02T14:57:04;12.50;73.30
9410;DHT22;4744;52.576;13.568;2024-03-02T14:59:31;12.50;74.00
9410;DHT22;4744;52.576;13.568;2024-03-02T15:01:58;12.50;73.90
9410;DHT22;4744;52.576;13.568;2024-03-02T15:04:27;12.50;74.20
9410;DHT22;4744;52.576;13.568;2024-03-02T15:06:53;12.40;73.80
9410;DHT22;4744;52.576;13.568;2024-03-02T15:09:20;12.30;74.90
9410;DHT22;4744;52.576;13.568;2024-03-02T15:11:47;12.30;75.30
9410;DHT22;4744;52.576;13.568;2024-03-02T15:14:14;12.10;75.00
9410;DHT22;4744;52.576;13.568;2024-03-02T15:16:41;12.00;76.20
9410;DHT22;4744;52.576;13.568;2024-03-02T15:19:08;11.90;76.70
9410;DHT22;4744;52.576;13.568;2024-03-02T15:21:36;11.90;77.00
9410;DHT22;4744;52.576;13.568;2024-03-02T15:24:04;11.90;77.50
9410;DHT22;4744;52.576;13.568;2024-03-02T15:26:31;11.90;77.20
9410;DHT22;4744;52.576;13.568;2024-03-02T15:28:58;11.70;77.50
9410;DHT22;4744;52.576;13.568;2024-03-02T15:31:25;11.70;77.50
9410;DHT22;4744;52.576;13.568;2024-03-02T15:33:52;11.60;77.90
9410;DHT22;4744;52.576;13.568;2024-03-02T15:36:21;11.50;78.20
9410;DHT22;4744;52.576;13.568;2024-03-02T15:38:49;11.50;78.00
9410;DHT22;4744;52.576;13.568;2024-03-02T15:41:17;11.40;78.20
9410;DHT22;4744;52.576;13.568;2024-03-02T15:43:43;11.40;78.50
9410;DHT22;4744;52.576;13.568;2024-03-02T15:46:12;11.30;79.00
9410;DHT22;4744;52.576;13.568;2024-03-02T15:48:39;11.20;79.20
9410;DHT22;4744;52.576;13.568;2024-03-02T15:51:06;11.10;79.70
9410;DHT22;4744;52.576;13.568;2024-03-02T15:53:32;11.10;79.70
9410;DHT22;4744;52.576;13.568;2024-03-02T15:56:01;11.10;79.80
9410;DHT22;4744;52.576;13.568;2024-03-02T15:58:29;11.10;80.30
9410;DHT22;4744;52.576;13.568;2024-03-02T16:00:56;11.00;80.30
9410;DHT22;4744;52.576;13.568;2024-03-02T16:03:23;11.00;80.50